Petawawa, Canada
Current Conditions -  °F | °C
As of 7:00 PM on Sunday 23 Nov 2014 (Local Time) from CYWA Reporting Station
Overcast Overcast  
Wind Chill: 37°   Ceiling: 1700
Heat Index: 43°   Visibility: 6mi
Dew Point: 37°   Wind: 9mph
Humidity: 81%   Direction: 120°ESE
Pressure: 29.85"   Gusts: NA
Location:  45.9°N, 77.28°W
Report Text: CYWA 240000Z AUTO 12008KT 6SM OVC017 06/03 A2985 RMK SLP114
Loading
Personal Weather Stations






























Interactive Weather Map New forecast layout! Learn more

10-Day Weather Forecast

Advertisements
Track Severe Weather on mobile